Time;durP1;ratioP1;P1;durP2;ratioP2;P2;SDS_P1;SDS_P2;PMS_P1;PMS_P2;Temp;Humidity;BMP_temperature;BMP_pressure;BME280_temperature;BME280_humidity;BME280_pressure;Samples;Min_cycle;Max_cycle;Signal;HPM_P1;HPM_P2
2020/12/16 00:00:19;;;;;;;1.02;0.60;;;21.90;43.40;;;;;;5069181;28;20093;-47
2020/12/16 00:02:45;;;;;;;1.20;0.70;;;21.80;43.40;;;;;;5067949;28;20031;-47
2020/12/16 00:05:11;;;;;;;0.90;0.70;;;21.80;43.40;;;;;;5069545;28;20075;-47
2020/12/16 00:07:38;;;;;;;2.10;1.05;;;21.80;43.40;;;;;;5068633;28;20062;-49
2020/12/16 00:10:08;;;;;;;1.58;0.80;;;21.80;43.40;;;;;;5070681;28;20029;-48
2020/12/16 00:12:37;;;;;;;2.37;0.80;;;21.80;43.40;;;;;;5053240;28;20452;-47
2020/12/16 00:15:03;;;;;;;1.45;0.80;;;21.80;43.40;;;;;;5073182;28;20032;-48
2020/12/16 00:17:29;;;;;;;4.35;0.85;;;21.80;43.30;;;;;;5074047;28;20496;-48
2020/12/16 00:19:54;;;;;;;1.20;0.70;;;21.70;43.30;;;;;;5065987;28;20021;-47
2020/12/16 00:22:20;;;;;;;1.95;1.05;;;21.70;43.30;;;;;;5053101;28;20416;-49
2020/12/16 00:24:45;;;;;;;0.98;0.75;;;21.70;43.40;;;;;;5070088;28;20029;-46
2020/12/16 00:27:11;;;;;;;1.40;0.75;;;21.70;43.30;;;;;;5066954;28;20044;-48
2020/12/16 00:29:40;;;;;;;1.13;0.60;;;21.70;43.30;;;;;;5068840;28;20040;-47
2020/12/16 00:32:06;;;;;;;1.75;0.90;;;21.70;43.40;;;;;;5070947;28;20028;-49
2020/12/16 00:34:32;;;;;;;1.55;1.00;;;21.60;43.30;;;;;;5068936;28;20052;-48
2020/12/16 00:36:57;;;;;;;2.78;0.80;;;21.60;43.30;;;;;;5070168;28;20059;-48
2020/12/16 00:39:23;;;;;;;1.60;0.98;;;21.60;43.40;;;;;;5065052;28;20512;-49
2020/12/16 00:41:49;;;;;;;1.10;0.60;;;21.60;43.30;;;;;;5070628;28;20024;-47
2020/12/16 00:44:14;;;;;;;1.00;0.60;;;21.60;43.40;;;;;;5067779;28;20039;-48
2020/12/16 00:46:40;;;;;;;0.80;0.57;;;21.60;43.40;;;;;;5065627;28;20031;-48
2020/12/16 00:49:05;;;;;;;2.08;0.88;;;21.60;43.40;;;;;;5065326;28;20028;-48
2020/12/16 00:51:31;;;;;;;1.70;0.90;;;21.60;43.30;;;;;;5065657;28;20037;-47
2020/12/16 00:53:56;;;;;;;2.63;0.98;;;21.50;43.30;;;;;;5066862;28;20029;-48
2020/12/16 00:56:22;;;;;;;1.77;0.82;;;21.50;43.30;;;;;;5064262;28;20036;-49
2020/12/16 00:58:48;;;;;;;1.40;0.70;;;21.50;43.30;;;;;;5063403;28;20524;-48
2020/12/16 01:01:13;;;;;;;2.45;0.52;;;21.50;43.30;;;;;;5061051;28;20082;-48
2020/12/16 01:03:39;;;;;;;1.50;0.77;;;21.50;43.40;;;;;;5069172;28;20056;-47
2020/12/16 01:06:04;;;;;;;2.15;0.68;;;21.50;43.40;;;;;;5067711;28;20031;-47
2020/12/16 01:08:30;;;;;;;2.00;0.82;;;21.50;43.40;;;;;;5066674;28;20508;-46
2020/12/16 01:10:56;;;;;;;0.70;0.57;;;21.50;43.40;;;;;;5059412;28;20078;-48
2020/12/16 01:13:21;;;;;;;1.98;0.90;;;21.50;43.40;;;;;;5065528;28;20032;-49
2020/12/16 01:15:47;;;;;;;2.33;0.88;;;21.40;43.40;;;;;;5062411;28;20020;-46
2020/12/16 01:18:13;;;;;;;1.20;0.50;;;21.40;43.40;;;;;;5061396;28;20028;-46
2020/12/16 01:20:38;;;;;;;1.70;0.82;;;21.40;43.40;;;;;;5063673;28;20071;-48
2020/12/16 01:23:04;;;;;;;1.00;0.50;;;21.40;43.40;;;;;;5065271;28;20120;-48
2020/12/16 01:25:30;;;;;;;1.75;0.90;;;21.40;43.40;;;;;;5064830;28;20068;-47
2020/12/16 01:27:57;;;;;;;1.95;0.73;;;21.40;43.40;;;;;;5066706;28;20032;-46
2020/12/16 01:30:23;;;;;;;1.30;0.85;;;21.40;43.90;;;;;;5060676;28;20513;-47
2020/12/16 01:32:53;;;;;;;3.88;1.00;;;21.30;43.50;;;;;;5065840;28;20025;-44
2020/12/16 01:35:18;;;;;;;1.55;0.77;;;21.30;43.50;;;;;;5060198;28;20703;-48
2020/12/16 01:37:44;;;;;;;2.08;0.63;;;21.30;43.50;;;;;;5059230;28;20139;-47
2020/12/16 01:40:14;;;;;;;1.27;0.60;;;21.30;43.40;;;;;;5060961;28;20031;-48
2020/12/16 01:42:40;;;;;;;1.67;0.60;;;21.30;43.40;;;;;;5068166;28;20131;-45
2020/12/16 01:45:07;;;;;;;1.10;0.73;;;21.30;43.50;;;;;;5061647;28;20104;-47
2020/12/16 01:47:33;;;;;;;1.20;0.80;;;21.20;43.40;;;;;;5060054;28;20111;-47
2020/12/16 01:49:59;;;;;;;0.90;0.75;;;21.20;43.90;;;;;;5066836;28;20108;-47
2020/12/16 01:52:27;;;;;;;1.48;0.80;;;21.20;43.40;;;;;;5067366;28;20033;-48
2020/12/16 01:54:54;;;;;;;1.92;0.77;;;21.20;43.40;;;;;;5060143;28;20021;-46
2020/12/16 01:57:22;;;;;;;2.65;0.60;;;21.20;43.50;;;;;;5059698;28;20520;-48
2020/12/16 01:59:50;;;;;;;1.10;0.70;;;21.20;43.40;;;;;;5062097;28;20025;-47
2020/12/16 02:02:18;;;;;;;1.38;0.80;;;21.20;43.50;;;;;;5059417;28;20020;-48
2020/12/16 02:04:46;;;;;;;1.45;0.68;;;21.20;43.50;;;;;;5064544;28;20090;-48
2020/12/16 02:07:13;;;;;;;1.25;0.70;;;21.20;43.50;;;;;;5066414;28;20036;-47
2020/12/16 02:09:40;;;;;;;1.23;0.80;;;21.10;43.50;;;;;;5047243;28;20086;-49
2020/12/16 02:12:14;;;;;;;0.80;0.50;;;21.10;43.50;;;;;;5066046;28;20020;-48
2020/12/16 02:14:41;;;;;;;1.60;0.68;;;21.10;43.50;;;;;;5069994;28;20115;-47
2020/12/16 02:17:08;;;;;;;2.45;0.60;;;21.10;43.50;;;;;;5062040;28;20029;-45
2020/12/16 02:19:41;;;;;;;1.00;0.60;;;21.10;43.50;;;;;;5065877;28;21379;-46
2020/12/16 02:22:09;;;;;;;0.80;0.60;;;21.10;43.50;;;;;;5070180;28;20021;-48
2020/12/16 02:24:38;;;;;;;1.02;0.80;;;21.10;43.50;;;;;;5067349;28;20029;-48
2020/12/16 02:27:04;;;;;;;2.28;0.85;;;21.10;43.50;;;;;;5065529;28;20028;-48
2020/12/16 02:29:30;;;;;;;1.23;0.75;;;21.10;43.60;;;;;;5047448;28;20101;-48
2020/12/16 02:31:57;;;;;;;1.27;0.68;;;21.10;43.60;;;;;;5066268;28;20119;-48
2020/12/16 02:34:23;;;;;;;1.08;0.57;;;21.10;43.50;;;;;;5070188;28;20063;-47
2020/12/16 02:36:48;;;;;;;1.42;0.70;;;21.10;43.60;;;;;;5065618;28;20072;-48
2020/12/16 02:39:14;;;;;;;0.90;0.50;;;21.10;43.50;;;;;;5071763;28;20020;-48
2020/12/16 02:41:39;;;;;;;1.70;0.60;;;21.00;43.50;;;;;;5063217;28;20058;-47
2020/12/16 02:44:05;;;;;;;1.25;0.60;;;21.00;43.40;;;;;;5064564;28;20140;-48
2020/12/16 02:46:31;;;;;;;0.95;0.50;;;21.10;43.50;;;;;;5062586;28;20041;-46
2020/12/16 02:48:57;;;;;;;0.90;0.57;;;21.00;43.50;;;;;;5064584;28;20405;-47
2020/12/16 02:51:22;;;;;;;1.85;0.47;;;21.00;43.50;;;;;;5066533;28;20024;-47
2020/12/16 02:53:48;;;;;;;1.17;0.50;;;21.00;43.50;;;;;;5062276;28;20040;-47
2020/12/16 02:56:13;;;;;;;1.20;0.60;;;21.00;43.50;;;;;;5063361;28;20128;-47
2020/12/16 02:58:45;;;;;;;1.00;0.55;;;21.00;43.50;;;;;;5070035;28;20031;-46
2020/12/16 03:01:12;;;;;;;1.08;0.47;;;21.00;43.50;;;;;;5070848;28;20051;-48
2020/12/16 03:03:38;;;;;;;1.10;0.50;;;21.00;43.60;;;;;;5068745;28;20565;-49
2020/12/16 03:06:04;;;;;;;0.85;0.57;;;21.00;43.50;;;;;;5063144;28;20033;-45
2020/12/16 03:08:29;;;;;;;0.80;0.40;;;20.90;43.50;;;;;;5064946;28;20393;-48
2020/12/16 03:10:55;;;;;;;1.40;0.73;;;21.00;43.60;;;;;;5059803;28;20037;-47
2020/12/16 03:13:20;;;;;;;1.27;0.40;;;20.90;43.50;;;;;;5066408;28;20442;-48
2020/12/16 03:15:46;;;;;;;1.17;0.60;;;20.90;43.50;;;;;;5062444;28;20032;-47
2020/12/16 03:18:12;;;;;;;1.30;0.70;;;21.00;43.50;;;;;;5064978;28;20036;-49
2020/12/16 03:20:37;;;;;;;1.00;0.57;;;20.90;43.50;;;;;;5065357;28;20127;-48
2020/12/16 03:23:03;;;;;;;0.82;0.50;;;20.90;43.50;;;;;;5067200;28;20038;-48
2020/12/16 03:25:28;;;;;;;1.38;0.30;;;20.90;43.50;;;;;;5063404;28;20036;-47
2020/12/16 03:27:54;;;;;;;1.30;0.60;;;20.90;43.60;;;;;;5061779;28;20676;-48
2020/12/16 03:30:20;;;;;;;1.33;0.35;;;20.90;43.50;;;;;;5058808;28;20049;-48
2020/12/16 03:32:45;;;;;;;1.42;0.50;;;20.90;43.50;;;;;;5069143;28;20035;-47
2020/12/16 03:35:11;;;;;;;1.45;0.50;;;20.90;43.60;;;;;;5061973;28;20475;-47
2020/12/16 03:37:37;;;;;;;1.00;0.50;;;20.90;43.50;;;;;;5065635;28;20120;-49
2020/12/16 03:40:03;;;;;;;1.40;0.47;;;20.90;43.60;;;;;;5067989;28;20067;-47
2020/12/16 03:42:28;;;;;;;1.83;0.40;;;20.80;43.50;;;;;;5067075;28;20044;-49
2020/12/16 03:44:54;;;;;;;1.17;0.60;;;20.90;43.50;;;;;;5066390;28;20028;-47
2020/12/16 03:47:19;;;;;;;0.82;0.63;;;20.90;43.60;;;;;;5066535;28;20036;-48
2020/12/16 03:49:45;;;;;;;0.75;0.50;;;20.90;43.50;;;;;;5061931;28;20040;-46
2020/12/16 03:52:10;;;;;;;1.08;0.68;;;20.80;43.50;;;;;;5062616;28;20536;-46
2020/12/16 03:54:36;;;;;;;2.92;0.43;;;20.80;43.60;;;;;;5034730;28;20492;-48
2020/12/16 03:57:02;;;;;;;1.02;0.40;;;20.80;43.50;;;;;;5061448;28;20040;-46
2020/12/16 03:59:27;;;;;;;1.63;0.50;;;20.80;43.60;;;;;;5079747;22;20098;-47
2020/12/16 04:01:53;;;;;;;0.90;0.50;;;20.80;43.40;;;;;;5062269;28;20029;-42
2020/12/16 04:04:19;;;;;;;0.95;0.40;;;20.80;43.70;;;;;;5064479;28;20136;-42
2020/12/16 04:06:44;;;;;;;1.35;0.50;;;20.80;43.70;;;;;;5062447;28;20039;-47
2020/12/16 04:09:10;;;;;;;1.00;0.43;;;20.80;43.60;;;;;;5060993;28;20046;-47
2020/12/16 04:11:35;;;;;;;0.73;0.32;;;20.80;43.60;;;;;;5031476;28;20212;-48
2020/12/16 04:14:01;;;;;;;0.70;0.47;;;20.80;43.60;;;;;;5063782;28;20062;-46
2020/12/16 04:16:27;;;;;;;1.98;0.52;;;20.80;43.70;;;;;;5059622;28;20033;-46
2020/12/16 04:18:52;;;;;;;0.93;0.65;;;20.70;43.60;;;;;;5059186;28;20112;-44
2020/12/16 04:21:19;;;;;;;1.75;0.60;;;20.80;43.70;;;;;;5058606;28;20055;-44
2020/12/16 04:23:45;;;;;;;2.05;0.50;;;20.80;43.70;;;;;;5065520;28;20029;-44
2020/12/16 04:26:11;;;;;;;0.82;0.47;;;20.70;43.70;;;;;;5067810;28;20523;-48
2020/12/16 04:28:37;;;;;;;1.52;0.50;;;20.70;43.70;;;;;;5057473;28;20079;-40
2020/12/16 04:31:07;;;;;;;0.85;0.40;;;20.70;43.70;;;;;;5067909;28;20478;-40
2020/12/16 04:33:33;;;;;;;0.80;0.38;;;20.70;44.20;;;;;;5067668;28;20447;-48
2020/12/16 04:35:59;;;;;;;1.40;0.30;;;20.70;43.70;;;;;;5066218;28;20021;-44
2020/12/16 04:38:25;;;;;;;0.95;0.40;;;20.70;43.70;;;;;;5065475;28;20048;-43
2020/12/16 04:40:50;;;;;;;0.98;0.40;;;20.70;43.70;;;;;;5063635;28;20390;-43
2020/12/16 04:43:18;;;;;;;0.65;0.30;;;20.70;43.80;;;;;;5068176;28;20030;-47
2020/12/16 04:45:44;;;;;;;1.15;0.50;;;20.60;44.20;;;;;;5062419;28;20078;-47
2020/12/16 04:48:10;;;;;;;0.80;0.30;;;20.60;43.90;;;;;;5062023;28;20040;-44
2020/12/16 04:50:37;;;;;;;1.88;0.55;;;20.60;43.80;;;;;;5062472;28;20131;-47
2020/12/16 04:53:05;;;;;;;0.73;0.30;;;20.60;43.80;;;;;;5064448;28;20039;-45
2020/12/16 04:55:31;;;;;;;0.75;0.38;;;20.60;43.70;;;;;;5063821;28;20718;-44
2020/12/16 04:58:00;;;;;;;0.98;0.43;;;20.60;43.70;;;;;;5063403;28;20078;-46
2020/12/16 05:00:26;;;;;;;2.00;0.32;;;20.60;43.80;;;;;;5058108;28;20024;-47
2020/12/16 05:02:58;;;;;;;0.93;0.40;;;20.60;43.80;;;;;;5060462;28;20021;-44
2020/12/16 05:05:24;;;;;;;0.60;0.30;;;20.60;43.80;;;;;;5058204;28;20021;-47
2020/12/16 05:07:51;;;;;;;0.80;0.20;;;20.60;43.80;;;;;;5060107;28;20024;-44
2020/12/16 05:10:32;;;;;;;0.80;0.40;;;20.60;43.80;;;;;;5062296;28;20090;-46
2020/12/16 05:13:08;;;;;;;0.93;0.50;;;20.60;43.80;;;;;;5056072;28;20029;-45
2020/12/16 05:15:35;;;;;;;0.60;0.30;;;20.50;43.80;;;;;;5065868;28;20079;-41
2020/12/16 05:18:04;;;;;;;0.77;0.47;;;20.50;43.80;;;;;;5064809;28;20090;-43
2020/12/16 05:20:30;;;;;;;1.35;0.40;;;20.50;43.80;;;;;;5067523;28;20039;-48
2020/12/16 05:23:04;;;;;;;0.75;0.40;;;20.50;43.90;;;;;;5059533;28;20028;-47
2020/12/16 05:25:31;;;;;;;1.90;0.50;;;20.50;43.90;;;;;;5059010;28;20194;-48
2020/12/16 05:27:57;;;;;;;0.85;0.30;;;20.50;43.90;;;;;;5067545;28;20032;-48
2020/12/16 05:30:23;;;;;;;1.17;0.43;;;20.50;43.90;;;;;;5065970;28;20401;-46
2020/12/16 05:32:48;;;;;;;0.98;0.30;;;20.50;43.90;;;;;;5063161;28;20043;-44
2020/12/16 05:35:26;;;;;;;1.63;0.40;;;20.50;43.90;;;;;;5060770;28;20040;-46
2020/12/16 05:38:09;;;;;;;0.77;0.30;;;20.50;43.90;;;;;;5062751;28;20047;-44
2020/12/16 05:40:40;;;;;;;1.02;0.55;;;20.50;43.90;;;;;;5061737;28;20493;-42
2020/12/16 05:43:07;;;;;;;1.08;0.50;;;20.50;43.90;;;;;;5061446;28;20040;-46
2020/12/16 05:45:40;;;;;;;0.70;0.30;;;20.50;43.90;;;;;;5060731;28;20045;-43
2020/12/16 05:48:10;;;;;;;0.75;0.40;;;20.50;43.90;;;;;;5057400;28;20525;-43
2020/12/16 05:50:45;;;;;;;1.15;0.40;;;20.40;43.90;;;;;;5055864;28;20429;-46
2020/12/16 05:53:12;;;;;;;0.35;0.20;;;20.40;43.90;;;;;;5060282;28;20029;-45
2020/12/16 05:55:38;;;;;;;0.60;0.35;;;20.40;43.90;;;;;;5065401;28;20790;-44
2020/12/16 05:58:06;;;;;;;0.60;0.40;;;20.40;43.90;;;;;;5057586;28;20051;-45
2020/12/16 06:00:59;;;;;;;0.85;0.22;;;20.40;43.90;;;;;;5044566;28;20437;-45
2020/12/16 06:03:30;;;;;;;0.57;0.20;;;20.40;43.90;;;;;;5059748;28;20094;-43
2020/12/16 06:06:00;;;;;;;0.90;0.40;;;20.40;43.90;;;;;;5058688;28;20028;-46
2020/12/16 06:08:37;;;;;;;0.52;0.30;;;20.40;43.80;;;;;;5057365;28;20076;-46
2020/12/16 06:11:04;;;;;;;1.67;0.50;;;20.40;43.80;;;;;;5056342;28;20036;-43
2020/12/16 06:13:29;;;;;;;0.88;0.40;;;20.40;43.80;;;;;;5063150;28;20068;-49
2020/12/16 06:16:02;;;;;;;0.68;0.30;;;20.30;43.80;;;;;;5063133;28;20120;-43
2020/12/16 06:18:37;;;;;;;0.70;0.28;;;20.40;43.90;;;;;;5060239;28;20536;-44
2020/12/16 06:21:04;;;;;;;1.42;0.20;;;20.40;43.90;;;;;;5060933;28;20037;-42
2020/12/16 06:23:41;;;;;;;0.60;0.30;;;20.40;43.80;;;;;;5064505;28;20103;-45
2020/12/16 06:26:14;;;;;;;0.70;0.30;;;20.40;43.80;;;;;;5062585;28;20025;-42
2020/12/16 06:28:42;;;;;;;1.02;0.35;;;20.30;44.00;;;;;;5061774;28;20029;-45
2020/12/16 06:31:24;;;;;;;0.80;0.40;;;20.30;44.00;;;;;;5060731;28;20060;-43
2020/12/16 06:34:03;;;;;;;0.82;0.20;;;20.30;44.10;;;;;;5059691;28;20056;-43
2020/12/16 06:36:40;;;;;;;1.52;0.30;;;20.30;44.20;;;;;;5057811;28;20041;-48
2020/12/16 06:39:19;;;;;;;0.80;0.30;;;20.40;44.20;;;;;;5058345;28;20397;-46
2020/12/16 06:42:11;;;;;;;0.68;0.20;;;20.60;44.00;;;;;;5061844;28;20021;-43
2020/12/16 06:44:36;;;;;;;1.00;0.30;;;20.70;43.60;;;;;;5057461;28;20037;-44
2020/12/16 06:47:03;;;;;;;1.08;0.20;;;20.80;43.30;;;;;;5057686;28;20104;-45
2020/12/16 06:49:34;;;;;;;1.08;0.30;;;21.00;43.10;;;;;;5056564;28;20024;-47
2020/12/16 06:52:08;;;;;;;1.23;0.30;;;21.10;42.90;;;;;;5064452;28;20173;-46
2020/12/16 06:54:41;;;;;;;1.33;0.30;;;21.20;42.60;;;;;;5060690;28;20381;-43
2020/12/16 06:57:13;;;;;;;0.70;0.32;;;21.20;42.50;;;;;;5061110;28;20051;-47
2020/12/16 06:59:50;;;;;;;2.85;0.38;;;21.30;42.30;;;;;;5061705;28;20028;-45
2020/12/16 07:02:34;;;;;;;0.77;0.30;;;21.40;42.30;;;;;;5066491;28;20020;-45
2020/12/16 07:05:01;;;;;;;2.55;0.38;;;21.40;42.10;;;;;;5065485;28;20040;-43
2020/12/16 07:07:40;;;;;;;1.02;0.30;;;21.40;42.00;;;;;;5043502;28;20415;-49
2020/12/16 07:10:33;;;;;;;1.52;0.30;;;21.50;42.00;;;;;;5058792;28;20051;-50
2020/12/16 07:13:19;;;;;;;1.63;0.40;;;21.50;42.00;;;;;;5059001;28;20048;-47
2020/12/16 07:15:45;;;;;;;0.70;0.25;;;21.60;41.90;;;;;;5060892;28;20097;-43
2020/12/16 07:18:30;;;;;;;1.00;0.22;;;21.60;41.90;;;;;;5062709;28;20463;-47
2020/12/16 07:21:15;;;;;;;0.80;0.38;;;21.60;41.80;;;;;;5049359;28;20057;-48
2020/12/16 07:24:00;;;;;;;1.25;0.55;;;21.60;41.90;;;;;;5062519;28;20061;-47
2020/12/16 07:26:29;;;;;;;1.13;0.45;;;21.60;41.90;;;;;;5060526;28;20025;-53
2020/12/16 07:28:57;;;;;;;1.25;0.40;;;21.70;42.00;;;;;;5066507;28;20021;-47
2020/12/16 07:31:24;;;;;;;0.95;0.35;;;21.70;42.00;;;;;;5068660;28;20059;-50
2020/12/16 07:33:50;;;;;;;1.55;0.63;;;21.70;41.90;;;;;;5060253;28;20024;-48
2020/12/16 07:36:17;;;;;;;1.90;0.65;;;21.70;42.00;;;;;;5067426;28;20493;-47
2020/12/16 07:38:48;;;;;;;2.40;0.57;;;21.70;42.00;;;;;;5066112;28;20036;-50
2020/12/16 07:41:25;;;;;;;1.13;0.47;;;21.60;42.10;;;;;;5062961;28;20028;-49
2020/12/16 07:43:51;;;;;;;1.42;0.70;;;21.60;42.10;;;;;;5065618;28;20032;-49
2020/12/16 07:46:17;;;;;;;2.15;0.90;;;21.60;42.20;;;;;;5066685;28;20078;-48
2020/12/16 07:48:44;;;;;;;3.08;0.63;;;21.50;42.20;;;;;;5067876;28;20097;-49
2020/12/16 07:51:09;;;;;;;2.60;1.25;;;21.50;42.20;;;;;;5064493;28;20032;-49
2020/12/16 07:53:42;;;;;;;1.27;1.00;;;21.50;42.30;;;;;;5062134;28;20028;-46
2020/12/16 07:56:08;;;;;;;5.13;1.05;;;21.50;42.40;;;;;;5063196;28;20020;-47
2020/12/16 07:58:33;;;;;;;2.10;1.20;;;21.50;42.50;;;;;;5048759;28;20036;-46
2020/12/16 08:01:27;;;;;;;1.60;1.30;;;21.40;42.50;;;;;;5062056;28;20393;-43
2020/12/16 08:03:53;;;;;;;1.90;1.08;;;21.50;42.50;;;;;;5060194;28;20052;-53
2020/12/16 08:06:18;;;;;;;1.40;0.98;;;21.50;42.50;;;;;;5065839;28;20028;-47
2020/12/16 08:08:51;;;;;;;2.80;1.13;;;21.50;42.40;;;;;;5065064;28;20032;-45
2020/12/16 08:11:18;;;;;;;3.30;1.73;;;21.50;42.50;;;;;;5063814;28;20505;-47
2020/12/16 08:13:44;;;;;;;1.67;1.58;;;21.50;42.60;;;;;;5063940;28;20036;-46
2020/12/16 08:16:10;;;;;;;3.42;2.22;;;21.60;42.60;;;;;;5061369;28;20033;-47
2020/12/16 08:18:40;;;;;;;3.35;2.10;;;21.60;42.60;;;;;;5063653;28;20025;-47
2020/12/16 08:21:20;;;;;;;2.40;2.20;;;21.50;42.70;;;;;;5061678;28;20800;-48
2020/12/16 08:23:47;;;;;;;2.58;2.00;;;21.50;42.90;;;;;;5060815;28;20020;-44
2020/12/16 08:26:13;;;;;;;2.72;2.05;;;21.50;42.90;;;;;;5058862;28;20032;-51
2020/12/16 08:28:39;;;;;;;4.55;2.42;;;21.50;43.00;;;;;;5061239;28;20028;-48
2020/12/16 08:31:05;;;;;;;5.07;2.83;;;21.60;43.10;;;;;;5059294;28;20020;-48
2020/12/16 08:33:31;;;;;;;4.10;2.90;;;21.50;43.20;;;;;;5058990;28;20105;-45
2020/12/16 08:36:05;;;;;;;3.95;3.63;;;21.50;43.20;;;;;;5060828;28;20016;-40
2020/12/16 08:38:36;;;;;;;4.47;3.72;;;21.50;43.30;;;;;;5059334;28;20143;-46
2020/12/16 08:41:04;;;;;;;8.00;3.65;;;21.50;43.40;;;;;;5060282;28;20029;-42
2020/12/16 08:43:35;;;;;;;3.78;3.28;;;21.50;43.50;;;;;;5056283;28;20033;-45
2020/12/16 08:46:11;;;;;;;4.43;3.85;;;21.40;43.50;;;;;;5059672;28;20504;-45
2020/12/16 08:48:47;;;;;;;4.78;3.88;;;21.40;43.60;;;;;;5060598;28;20039;-43
2020/12/16 08:51:17;;;;;;;4.75;4.00;;;21.30;43.70;;;;;;5059158;28;20042;-45
2020/12/16 08:53:50;;;;;;;3.92;3.55;;;21.50;43.50;;;;;;5063269;28;20086;-43
2020/12/16 08:56:26;;;;;;;5.55;3.78;;;21.60;43.60;;;;;;5061398;28;20095;-45
2020/12/16 08:58:59;;;;;;;6.13;4.43;;;21.50;43.60;;;;;;5059293;28;20124;-43
2020/12/16 09:01:25;;;;;;;5.20;4.07;;;21.50;43.80;;;;;;5055770;28;20108;-44
2020/12/16 09:03:53;;;;;;;5.35;3.72;;;21.40;44.00;;;;;;5058731;28;20104;-43
2020/12/16 09:06:18;;;;;;;4.28;3.60;;;21.40;44.20;;;;;;5062754;28;20024;-43
2020/12/16 09:08:44;;;;;;;4.50;3.65;;;21.40;44.20;;;;;;5065839;28;20539;-48
2020/12/16 09:11:09;;;;;;;6.15;4.35;;;21.50;44.10;;;;;;5059534;28;20021;-42
2020/12/16 09:13:35;;;;;;;6.93;3.67;;;21.50;44.10;;;;;;5067408;28;20036;-44
2020/12/16 09:16:01;;;;;;;4.50;3.88;;;21.50;44.20;;;;;;5067461;28;20032;-46
2020/12/16 09:18:28;;;;;;;4.05;3.35;;;21.50;44.10;;;;;;5065549;28;20032;-46
2020/12/16 09:20:55;;;;;;;5.32;3.70;;;21.50;44.10;;;;;;5057339;28;20029;-47
2020/12/16 09:23:24;;;;;;;6.68;4.28;;;21.50;44.10;;;;;;5062667;28;20098;-48
2020/12/16 09:25:51;;;;;;;7.22;4.50;;;21.60;44.00;;;;;;5056000;28;20024;-46
2020/12/16 09:28:17;;;;;;;10.68;4.60;;;21.60;44.00;;;;;;5056572;28;20121;-47
2020/12/16 09:30:43;;;;;;;5.75;4.43;;;21.60;44.20;;;;;;5058183;28;20393;-48
2020/12/16 09:33:14;;;;;;;5.07;4.18;;;21.60;44.10;;;;;;5057472;28;20029;-44
2020/12/16 09:35:41;;;;;;;5.53;3.70;;;21.60;44.00;;;;;;5065512;28;20301;-45
2020/12/16 09:38:14;;;;;;;4.10;3.75;;;21.70;44.00;;;;;;5064593;28;20028;-44
2020/12/16 09:40:40;;;;;;;5.85;3.92;;;21.70;44.00;;;;;;5066514;28;20032;-40
2020/12/16 09:43:08;;;;;;;8.63;4.70;;;21.70;44.00;;;;;;5066808;28;20024;-42
2020/12/16 09:45:34;;;;;;;7.57;4.45;;;21.70;43.90;;;;;;5062770;28;21859;-41
2020/12/16 09:48:00;;;;;;;5.43;4.25;;;21.70;44.00;;;;;;5060221;28;20040;-47
2020/12/16 09:50:28;;;;;;;5.20;4.18;;;21.70;44.00;;;;;;5064717;28;20035;-46
2020/12/16 09:53:02;;;;;;;4.60;3.30;;;21.70;44.00;;;;;;5064397;28;20111;-51
2020/12/16 09:55:36;;;;;;;6.63;4.20;;;21.70;44.30;;;;;;5056771;28;20068;-43
2020/12/16 09:58:07;;;;;;;4.68;3.50;;;21.70;44.50;;;;;;5059091;28;20032;-42
2020/12/16 10:00:34;;;;;;;8.25;4.00;;;21.70;44.60;;;;;;5059740;28;20536;-46
2020/12/16 10:03:02;;;;;;;5.03;3.28;;;21.70;44.50;;;;;;5060052;28;20036;-41
2020/12/16 10:05:28;;;;;;;7.13;3.63;;;21.70;44.40;;;;;;5064106;28;20103;-45
2020/12/16 10:07:55;;;;;;;4.50;2.95;;;21.70;44.40;;;;;;5065930;28;20040;-43
2020/12/16 10:10:21;;;;;;;3.38;3.00;;;21.80;44.40;;;;;;5059964;28;20032;-49
2020/12/16 10:12:47;;;;;;;4.55;3.10;;;21.80;44.40;;;;;;5079709;22;20060;-48
2020/12/16 10:15:13;;;;;;;3.60;2.60;;;21.80;44.10;;;;;;5043541;28;20029;-48
2020/12/16 10:17:55;;;;;;;5.35;3.38;;;22.00;44.00;;;;;;5015100;28;20052;-57
2020/12/16 10:20:21;;;;;;;3.38;2.45;;;22.00;44.20;;;;;;5045479;28;20036;-53
2020/12/16 10:22:47;;;;;;;5.28;3.15;;;22.20;44.30;;;;;;5027725;28;20029;-52
2020/12/16 10:25:13;;;;;;;5.22;2.78;;;22.20;44.20;;;;;;5046586;28;20035;-52
2020/12/16 10:27:39;;;;;;;4.18;2.70;;;22.20;44.00;;;;;;5050349;28;20033;-51
2020/12/16 10:30:07;;;;;;;6.20;2.80;;;22.30;44.00;;;;;;5050206;28;20405;-45
2020/12/16 10:32:34;;;;;;;3.15;2.35;;;22.30;44.00;;;;;;5051741;28;20025;-49
2020/12/16 10:35:00;;;;;;;3.00;2.42;;;22.40;44.00;;;;;;5050711;28;20537;-48
2020/12/16 10:37:27;;;;;;;4.30;2.20;;;22.50;44.00;;;;;;5048619;28;20107;-49
2020/12/16 10:39:53;;;;;;;3.60;2.20;;;22.50;43.90;;;;;;5054279;28;20106;-52
2020/12/16 10:42:20;;;;;;;3.47;2.53;;;22.50;43.90;;;;;;5050666;28;20033;-52
2020/12/16 10:44:46;;;;;;;4.05;2.50;;;22.60;43.80;;;;;;5049897;28;20967;-48
2020/12/16 10:47:12;;;;;;;3.55;2.25;;;22.60;43.90;;;;;;5048781;28;20025;-52
2020/12/16 10:49:39;;;;;;;3.38;2.63;;;22.60;43.90;;;;;;5047201;28;20397;-50
2020/12/16 10:52:10;;;;;;;4.55;2.33;;;22.60;44.10;;;;;;5049731;28;20056;-51
2020/12/16 10:54:36;;;;;;;2.25;2.10;;;22.60;44.00;;;;;;5033188;28;20486;-50
2020/12/16 10:57:02;;;;;;;4.35;2.35;;;22.60;44.00;;;;;;5044606;28;20032;-50
2020/12/16 10:59:29;;;;;;;2.35;1.80;;;22.60;44.10;;;;;;5050060;28;20028;-50
2020/12/16 11:01:58;;;;;;;5.22;2.33;;;22.60;44.10;;;;;;5049144;28;20017;-47
2020/12/16 11:04:27;;;;;;;3.05;2.20;;;22.60;44.10;;;;;;5043184;28;20040;-47
2020/12/16 11:06:53;;;;;;;4.47;2.03;;;22.60;44.20;;;;;;5042688;28;20040;-52
2020/12/16 11:09:19;;;;;;;2.15;1.75;;;22.60;44.30;;;;;;5042358;28;20029;-52
2020/12/16 11:11:50;;;;;;;2.35;1.77;;;22.60;44.10;;;;;;5044399;28;20033;-48
2020/12/16 11:14:16;;;;;;;2.13;1.63;;;22.60;44.40;;;;;;5043813;28;20037;-49
2020/12/16 11:16:42;;;;;;;2.10;1.88;;;22.60;44.40;;;;;;5047804;28;20137;-48
2020/12/16 11:19:09;;;;;;;2.30;1.92;;;22.60;44.50;;;;;;5046274;28;20029;-49
2020/12/16 11:21:39;;;;;;;2.08;1.88;;;22.60;44.30;;;;;;5047320;28;20036;-53
2020/12/16 11:24:05;;;;;;;1.98;1.77;;;22.60;44.70;;;;;;5048286;28;20090;-53
2020/12/16 11:26:31;;;;;;;1.70;1.35;;;22.60;44.60;;;;;;5049021;28;20041;-48
2020/12/16 11:28:57;;;;;;;2.78;1.70;;;22.60;44.30;;;;;;5046720;28;20082;-49
2020/12/16 11:31:22;;;;;;;2.53;1.63;;;22.60;44.50;;;;;;5046564;28;20017;-53
2020/12/16 11:33:48;;;;;;;2.60;1.65;;;22.60;44.40;;;;;;5050121;28;20033;-46
2020/12/16 11:36:13;;;;;;;2.58;1.88;;;22.60;44.40;;;;;;5049196;28;20024;-53
2020/12/16 11:38:39;;;;;;;7.68;2.15;;;22.60;44.50;;;;;;5051547;28;20417;-52
2020/12/16 11:41:05;;;;;;;3.38;1.80;;;22.60;44.60;;;;;;5048019;28;20080;-51
2020/12/16 11:43:31;;;;;;;3.22;2.03;;;22.60;44.80;;;;;;5041492;28;20052;-49
2020/12/16 11:45:57;;;;;;;3.03;2.03;;;22.50;44.70;;;;;;5040468;28;20752;-49
2020/12/16 11:48:23;;;;;;;4.75;2.85;;;22.50;44.90;;;;;;5031066;28;20025;-49
2020/12/16 11:50:48;;;;;;;3.47;2.22;;;22.50;45.00;;;;;;5049178;28;20036;-50
2020/12/16 11:53:14;;;;;;;3.65;2.53;;;22.50;45.00;;;;;;5048259;28;20094;-52
2020/12/16 11:55:40;;;;;;;3.45;2.03;;;22.40;45.10;;;;;;5040716;28;20144;-47
2020/12/16 11:58:06;;;;;;;4.10;2.03;;;22.40;45.10;;;;;;5045688;28;20116;-49
2020/12/16 12:00:32;;;;;;;4.03;2.30;;;22.40;45.20;;;;;;5044254;28;20032;-51
2020/12/16 12:02:58;;;;;;;2.60;2.38;;;22.40;45.00;;;;;;5046306;28;20029;-49
2020/12/16 12:05:23;;;;;;;3.47;2.00;;;22.30;44.90;;;;;;5043451;28;20028;-49
2020/12/16 12:07:49;;;;;;;3.72;2.58;;;22.30;45.00;;;;;;5045297;28;20523;-49
2020/12/16 12:10:14;;;;;;;3.00;1.85;;;22.20;44.90;;;;;;5043697;28;20069;-49
2020/12/16 12:12:40;;;;;;;11.57;2.83;;;22.20;45.20;;;;;;5041872;28;20440;-48
2020/12/16 12:15:06;;;;;;;4.18;2.72;;;22.30;45.10;;;;;;5045967;28;20033;-50
2020/12/16 12:17:31;;;;;;;3.75;2.75;;;22.30;45.00;;;;;;5052956;28;20461;-50
2020/12/16 12:19:57;;;;;;;4.55;2.97;;;22.30;45.00;;;;;;5027535;28;20020;-52
2020/12/16 12:22:26;;;;;;;4.97;2.33;;;22.30;44.80;;;;;;5044120;28;20017;-46
2020/12/16 12:25:11;;;;;;;5.20;2.20;;;22.30;44.80;;;;;;5044069;28;20035;-46
2020/12/16 12:27:36;;;;;;;2.20;1.98;;;22.40;45.20;;;;;;5038055;28;20029;-51
2020/12/16 12:30:03;;;;;;;3.60;2.53;;;22.40;44.80;;;;;;5048131;28;20597;-52
2020/12/16 12:32:28;;;;;;;3.92;2.30;;;22.40;44.70;;;;;;5043629;28;20021;-51
2020/12/16 12:35:12;;;;;;;3.00;2.40;;;22.40;44.90;;;;;;5044295;28;20039;-50
2020/12/16 12:37:38;;;;;;;4.35;2.83;;;22.30;44.90;;;;;;5041966;28;20025;-48
2020/12/16 12:40:04;;;;;;;3.47;2.42;;;22.30;44.90;;;;;;5048186;28;20079;-50
2020/12/16 12:42:29;;;;;;;2.78;2.00;;;22.30;45.50;;;;;;5042940;28;20091;-49
2020/12/16 12:44:56;;;;;;;3.17;2.33;;;22.20;45.80;;;;;;5037393;28;20121;-48
2020/12/16 12:47:22;;;;;;;4.70;2.88;;;22.20;45.70;;;;;;5046009;28;20056;-48
2020/12/16 12:49:47;;;;;;;2.85;2.55;;;22.20;45.70;;;;;;5032184;28;20036;-48
2020/12/16 12:52:13;;;;;;;3.17;2.88;;;22.20;45.70;;;;;;5044861;28;20060;-47